Terminal Aerodrome Forecast
Issued by NWS

Home | Current Version | Previous Version | Text Only | Print | Product List | Glossary On
Versions: 1 2 3 4 5 6 7 8 9 10 11 12 13 14
000
FTUS46 KLOX 232300
TAFBUR
TAF
KBUR 232334Z 2400/2424 18012KT P6SM FEW250
     FM240300 14004KT P6SM SKC
     FM240800 VRB03KT P6SM SKC
     FM242000 18009KT P6SM SKC=

USA.gov is the U.S. government's official web portal to all federal, state and local government web resources and services.